Bookmark and Share
Track history (hours):
 

Kamaehu

More information available from US FCC via Universal Licensing System and Coast Guard Vessel Documentation Center.

Last reported at 2012-Nov-01 05:25 UTC. Time now 2014-Apr-18 16:21 UTC.
Position N 38°31' W 123°28'.
Warning: this ship's position is years out of date!

Length 13 m; draft 2.5 m.

Type: Towing. MMSI: 367133180.

NotesDate/timePositionNaut miles runAvg speedWind from/ knotsBaromVisibWave heightAir tempDewpointWater temp
2012-Nov-01 05:25N 38°31' W 123°28'7 8.2
2012-Nov-01 04:36N 38°25' W 123°23'8 7.8
2012-Nov-01 03:33N 38°19' W 123°17'8 8.5
2012-Nov-01 02:34N 38°12' W 123°11'9 8.6
2012-Nov-01 01:33N 38°04' W 123°06'9 8.8
2012-Nov-01 00:34N 37°57' W 122°59'9 8.8
2012-Oct-31 23:33N 37°52' W 122°50'9 8.9
2012-Oct-31 22:33N 37°46' W 122°41'70 8.7
2012-Oct-31 14:31N 36°40' W 122°12'9 8.8
2012-Oct-31 13:33N 36°32' W 122°09'9 8.7
2012-Oct-31 12:33N 36°24' W 122°05'9 8.8
2012-Oct-31 11:33N 36°15' W 122°02'8 8.5
2012-Oct-31 10:38N 36°09' W 121°55'9 8.5
2012-Oct-31 09:33N 36°02' W 121°49'9 8.3
2012-Oct-31 08:31N 35°55' W 121°42'58 8.2
2012-Oct-31 01:32N 35°11' W 120°57'8 8.1
2012-Oct-31 00:33N 35°04' W 120°52'8 8.5
2012-Oct-30 23:33N 34°56' W 120°47'8 8.4
2012-Oct-30 22:33N 34°48' W 120°44'8 8.5
2012-Oct-30 21:33N 34°40' W 120°43'9 8.9
2012-Oct-30 20:34N 34°32' W 120°39'9 8.5
2012-Oct-30 19:33N 34°27' W 120°31'9 8.6
2012-Oct-30 18:33N 34°24' W 120°21'9 9.2
2012-Oct-30 17:33N 34°21' W 120°10'9 9.4
2012-Oct-30 16:33N 34°19' W 119°59'9 9.0
2012-Oct-30 15:34N 34°16' W 119°49'8 8.3
2012-Oct-30 14:33N 34°12' W 119°40'9 8.8
2012-Oct-30 13:33N 34°08' W 119°30'9 8.5
2012-Oct-30 12:33N 34°06' W 119°20'18 8.6
2012-Oct-30 10:28N 33°59' W 119°01'17 8.8
2012-Oct-30 08:33N 33°52' W 118°42'8 8.0
2012-Oct-30 07:33N 33°48' W 118°34'7 7.3
2012-Oct-30 06:32N 33°44' W 118°26'11 0.3
2012-Oct-28 18:32N 33°44' W 118°13'  
2012-Oct-23 01:26N 33°46' W 118°13'  

Dump ship's entire track history

sailing weather and tide predictions

Kamaehu — WCY3200 — position and weather